createdAt,value
2018-05-04T00:01:55.864Z,96193.56
2018-05-04T00:04:26.000Z,96197.92
2018-05-04T00:07:02.506Z,96197.77
2018-05-04T00:09:31.799Z,96195.22
2018-05-04T00:12:01.703Z,96197.58
2018-05-04T00:14:30.933Z,96202.09
2018-05-04T00:17:00.813Z,96204.19
2018-05-04T00:19:30.549Z,96206.35
2018-05-04T00:22:04.616Z,96207.74
2018-05-04T00:24:35.060Z,96201.78
2018-05-04T00:27:04.866Z,96213.27
2018-05-04T00:29:37.668Z,96206.69
2018-05-04T00:32:07.669Z,96210.64
2018-05-04T00:34:38.581Z,96211.60
2018-05-04T00:37:08.349Z,96221.72
2018-05-04T00:39:38.889Z,96212.77
2018-05-04T00:42:07.846Z,96221.10
2018-05-04T00:44:37.888Z,96218.47
2018-05-04T00:47:08.888Z,96225.41
2018-05-04T00:49:38.629Z,96223.23
2018-05-04T00:52:07.656Z,96213.87
2018-05-04T00:54:38.863Z,96217.05
2018-05-04T00:57:08.558Z,96222.41
2018-05-04T00:59:38.451Z,96225.95
2018-05-04T01:02:07.812Z,96228.50
2018-05-04T01:04:37.589Z,96234.05
2018-05-04T01:07:06.860Z,96229.89
2018-05-04T01:09:36.852Z,96217.59
2018-05-04T01:12:06.648Z,96227.51
2018-05-04T01:14:36.648Z,96225.10
2018-05-04T01:17:06.505Z,96226.48
2018-05-04T01:19:36.664Z,96219.72
2018-05-04T01:22:07.635Z,96209.20
2018-05-04T01:24:37.787Z,96211.97
2018-05-04T01:27:07.649Z,96208.80
2018-05-04T01:29:36.948Z,96213.14
2018-05-04T01:32:05.966Z,96219.69
2018-05-04T01:34:34.733Z,96221.05
2018-05-04T01:37:04.452Z,96223.26
2018-05-04T01:39:34.492Z,96235.92
2018-05-04T01:42:03.812Z,96221.24
2018-05-04T01:44:33.461Z,96217.28
2018-05-04T01:47:03.463Z,96230.54
2018-05-04T01:54:18.832Z,96234.88
2018-05-04T01:56:48.377Z,96235.47
2018-05-04T01:59:18.519Z,96239.61
2018-05-04T02:01:49.673Z,96237.42
2018-05-04T02:04:18.941Z,96247.94
2018-05-04T02:06:49.480Z,96248.53
2018-05-04T02:09:20.889Z,96246.13
2018-05-04T02:11:53.595Z,96245.13
2018-05-04T02:14:25.127Z,96247.12
2018-05-04T02:16:59.488Z,96249.89
2018-05-04T02:19:33.179Z,96247.28
2018-05-04T02:22:03.064Z,96238.55
2018-05-04T02:24:36.586Z,96238.36
2018-05-04T02:27:06.348Z,96237.37
2018-05-04T02:29:35.922Z,96241.30
2018-05-04T02:32:05.684Z,96242.30
2018-05-04T02:34:34.844Z,96241.67
2018-05-04T02:37:05.941Z,96237.51
2018-05-04T02:39:34.699Z,96234.95
2018-05-04T02:42:03.851Z,96233.34
2018-05-04T02:44:37.797Z,96235.92
2018-05-04T02:47:07.352Z,96238.50
2018-05-04T02:49:37.644Z,96233.31
2018-05-04T02:52:06.874Z,96246.40
2018-05-04T02:54:40.334Z,96235.09
2018-05-04T02:57:09.769Z,96243.00
2018-05-04T02:59:39.833Z,96252.91
2018-05-04T03:02:09.633Z,96248.75
2018-05-04T03:04:39.717Z,96261.64
2018-05-04T03:07:09.437Z,96262.87
2018-05-04T03:09:39.770Z,96265.81
2018-05-04T03:12:15.857Z,96266.04
2018-05-04T03:14:46.793Z,96268.95
2018-05-04T03:17:16.955Z,96260.45
2018-05-04T03:19:45.854Z,96263.83
2018-05-04T03:22:15.542Z,96262.60
2018-05-04T03:27:36.202Z,96266.97
2018-05-04T03:30:12.856Z,96276.45
2018-05-04T03:32:43.845Z,96276.66
2018-05-04T03:35:14.077Z,96272.48
2018-05-04T03:37:44.133Z,96267.33
2018-05-04T03:40:13.795Z,96267.14
2018-05-04T03:42:43.485Z,96278.84
2018-05-04T03:45:17.018Z,96275.30
2018-05-04T03:47:48.454Z,96279.47
2018-05-04T03:50:20.590Z,96290.73
2018-05-04T03:52:50.463Z,96297.65
2018-05-04T03:55:25.618Z,96293.09
2018-05-04T03:58:20.436Z,96286.91
2018-05-04T04:01:08.516Z,96294.84
2018-05-04T04:03:56.489Z,96292.86
2018-05-04T04:06:31.037Z,96300.76
2018-05-04T04:09:00.889Z,96309.88
2018-05-04T04:11:29.634Z,96306.51
2018-05-04T04:13:58.905Z,96304.69
2018-05-04T04:16:28.623Z,96311.07
2018-05-04T04:18:58.691Z,96317.02
2018-05-04T04:21:28.440Z,96317.02
2018-05-04T04:23:57.852Z,96320.79
2018-05-04T04:26:28.956Z,96325.95
2018-05-04T04:28:58.074Z,96328.32
2018-05-04T04:31:27.681Z,96327.10
2018-05-04T04:33:57.706Z,96336.63
2018-05-04T04:36:27.868Z,96341.19
2018-05-04T04:38:56.819Z,96340.39
2018-05-04T04:41:26.499Z,96350.87
2018-05-04T04:43:55.745Z,96333.41
2018-05-04T04:46:24.841Z,96333.22
2018-05-04T04:49:04.393Z,96338.17
2018-05-04T04:51:34.867Z,96348.48
2018-05-04T04:54:04.603Z,96347.69
2018-05-04T04:56:34.273Z,96351.46
2018-05-04T04:59:03.794Z,96346.47
2018-05-04T05:01:33.396Z,96353.41
2018-05-04T05:04:03.539Z,96357.17
2018-05-04T05:06:32.758Z,96358.17
2018-05-04T05:09:02.867Z,96356.38
2018-05-04T05:11:32.754Z,96355.19
2018-05-04T05:14:02.696Z,96363.69
2018-05-04T05:16:32.428Z,96369.47
2018-05-04T05:19:02.387Z,96363.92
2018-05-04T05:21:33.422Z,96369.47
2018-05-04T05:24:02.976Z,96374.86
2018-05-04T05:26:31.660Z,96378.07
2018-05-04T05:29:00.844Z,96381.01
2018-05-04T05:31:30.876Z,96382.00
2018-05-04T05:33:59.639Z,96375.23
2018-05-04T05:36:28.872Z,96378.20
2018-05-04T05:38:58.818Z,96377.02
2018-05-04T05:41:28.780Z,96389.34
2018-05-04T05:43:57.829Z,96397.04
2018-05-04T05:52:36.000Z,96408.59
2018-05-04T05:55:05.576Z,96406.97
2018-05-04T05:57:37.765Z,96400.42
2018-05-04T06:00:09.538Z,96406.54
2018-05-04T06:02:40.981Z,96401.58
2018-05-04T06:05:12.903Z,96411.89
2018-05-04T06:07:41.703Z,96411.89
2018-05-04T06:10:11.440Z,96412.65
2018-05-04T06:12:43.563Z,96414.00
2018-05-04T06:15:13.440Z,96411.62
2018-05-04T06:17:43.438Z,96413.53
2018-05-04T06:20:13.438Z,96420.08
2018-05-04T06:22:42.981Z,96416.16
2018-05-04T06:25:16.697Z,96414.54
2018-05-04T06:27:45.809Z,96417.39
2018-05-04T06:30:16.568Z,96417.03
2018-05-04T06:32:45.781Z,96416.92
2018-05-04T06:35:17.343Z,96421.20
2018-05-04T06:37:49.452Z,96421.64
2018-05-04T06:40:20.798Z,96430.83
2018-05-04T06:42:50.400Z,96430.91
2018-05-04T06:45:20.801Z,96432.89
2018-05-04T06:47:49.845Z,96428.56
2018-05-04T06:50:20.785Z,96432.38
2018-05-04T06:52:50.587Z,96441.92
2018-05-04T06:55:20.735Z,96449.52
2018-05-04T06:57:54.879Z,96447.06
2018-05-04T07:00:24.580Z,96455.42
2018-05-04T07:02:56.119Z,96445.25
2018-05-04T07:05:36.244Z,96442.01
2018-05-04T07:08:05.778Z,96451.05
2018-05-04T07:10:34.946Z,96458.69
2018-05-04T07:13:04.237Z,96451.45
2018-05-04T07:15:33.801Z,96456.09
2018-05-04T07:18:02.876Z,96458.14
2018-05-04T07:20:32.472Z,96464.49
2018-05-04T07:23:01.778Z,96465.52
2018-05-04T07:25:31.475Z,96467.98
2018-05-04T07:28:00.789Z,96463.09
2018-05-04T07:30:30.451Z,96458.84
2018-05-04T07:32:59.772Z,96470.63
2018-05-04T07:35:29.482Z,96473.23
2018-05-04T07:37:59.741Z,96467.73
2018-05-04T07:40:29.666Z,96469.66
2018-05-04T07:42:59.429Z,96466.26
2018-05-04T07:45:28.850Z,96467.95
2018-05-04T07:47:58.516Z,96474.30
2018-05-04T08:51:16.436Z,96536.10
2018-05-04T08:53:45.765Z,96535.30
2018-05-04T08:56:15.502Z,96537.72
2018-05-04T08:58:44.756Z,96540.94
2018-05-04T09:01:14.809Z,96543.95
2018-05-04T09:03:44.518Z,96549.11
2018-05-04T09:06:18.358Z,96544.75
2018-05-04T09:08:47.795Z,96541.77
2018-05-04T09:11:16.833Z,96544.83
2018-05-04T09:13:46.751Z,96545.81
2018-05-04T09:16:16.411Z,96554.31
2018-05-04T09:18:46.745Z,96549.66
2018-05-04T09:21:16.512Z,96548.23
2018-05-04T09:23:45.776Z,96551.02
2018-05-04T09:26:14.951Z,96555.18
2018-05-04T09:28:43.692Z,96556.97
2018-05-04T09:31:12.805Z,96562.16
2018-05-04T09:33:42.429Z,96563.38
2018-05-04T09:36:11.812Z,96564.58
2018-05-04T09:38:41.446Z,96575.09
2018-05-04T09:41:11.786Z,96572.59
2018-05-04T09:43:42.012Z,96561.30
2018-05-04T09:46:10.864Z,96568.83
2018-05-04T09:48:40.874Z,96570.22
2018-05-04T09:51:10.790Z,96573.75
2018-05-04T09:53:41.451Z,96585.84
2018-05-04T09:56:10.989Z,96584.33
2018-05-04T09:58:41.477Z,96586.12
2018-05-04T10:01:11.733Z,96582.52
2018-05-04T10:03:41.796Z,96578.94
2018-05-04T10:06:11.581Z,96574.14
2018-05-04T10:08:41.337Z,96584.30
2018-05-04T10:11:11.460Z,96576.00
2018-05-04T10:13:41.865Z,96578.43
2018-05-04T10:16:11.522Z,96570.53
2018-05-04T10:18:42.628Z,96577.13
2018-05-04T10:21:11.808Z,96578.11
2018-05-04T10:23:41.408Z,96580.69
2018-05-04T10:26:10.813Z,96586.20
2018-05-04T10:28:53.461Z,96579.66
2018-05-04T10:31:26.769Z,96576.59
2018-05-04T10:33:57.446Z,96579.34
2018-05-04T10:36:27.815Z,96578.27
2018-05-04T10:38:57.467Z,96587.20
2018-05-04T10:41:27.445Z,96588.95
2018-05-04T10:43:57.974Z,96593.31
2018-05-04T10:46:26.802Z,96591.52
2018-05-04T10:48:56.570Z,96581.84
2018-05-04T10:51:25.945Z,96589.41
2018-05-04T10:53:54.725Z,96594.46
2018-05-04T10:56:24.596Z,96592.95
2018-05-04T10:58:54.451Z,96593.42
2018-05-04T11:01:24.458Z,96587.23
2018-05-04T11:03:54.733Z,96588.70
2018-05-04T11:06:24.454Z,96590.36
2018-05-04T11:08:54.441Z,96594.04
2018-05-04T11:11:25.049Z,96592.59
2018-05-04T11:13:54.796Z,96592.70
2018-05-04T11:16:23.945Z,96598.30
2018-05-04T11:18:53.823Z,96594.53
2018-05-04T11:21:23.487Z,96589.97
2018-05-04T11:23:53.639Z,96601.84
2018-05-04T11:26:24.253Z,96604.98
2018-05-04T11:28:54.456Z,96613.72
2018-05-04T11:31:26.714Z,96618.01
2018-05-04T11:33:56.354Z,96620.36
2018-05-04T11:36:27.448Z,96615.16
2018-05-04T11:38:57.490Z,96622.03
2018-05-04T11:41:27.460Z,96615.64
2018-05-04T11:43:56.898Z,96628.34
2018-05-04T11:46:26.883Z,96638.47
2018-05-04T11:48:56.477Z,96632.83
2018-05-04T11:51:25.838Z,96635.77
2018-05-04T11:53:56.448Z,96640.38
2018-05-04T11:56:25.823Z,96649.15
2018-05-04T11:58:55.432Z,96648.95
2018-05-04T12:01:24.897Z,96653.84
2018-05-04T12:03:54.364Z,96658.84
2018-05-04T12:06:23.792Z,96664.12
2018-05-04T12:08:53.062Z,96676.47
2018-05-04T12:11:22.681Z,96671.50
2018-05-04T12:13:52.879Z,96669.67
2018-05-04T12:16:22.805Z,96678.81
2018-05-04T12:18:52.724Z,96681.86
2018-05-04T12:21:22.424Z,96675.35
2018-05-04T12:23:51.773Z,96684.88
2018-05-04T12:26:21.788Z,96689.09
2018-05-04T12:28:52.975Z,96695.80
2018-05-04T12:31:22.361Z,96694.95
2018-05-04T12:33:51.964Z,96690.95
2018-05-04T12:36:20.702Z,96692.54
2018-05-04T12:38:51.352Z,96703.86
2018-05-04T12:41:20.865Z,96713.78
2018-05-04T12:43:50.495Z,96722.52
2018-05-04T12:46:20.419Z,96720.14
2018-05-04T12:48:49.880Z,96703.25
2018-05-04T12:51:18.822Z,96694.33
2018-05-04T12:53:48.514Z,96684.24
2018-05-04T12:56:17.749Z,96683.65
2018-05-04T12:58:46.844Z,96684.01
2018-05-04T13:01:16.415Z,96695.88
2018-05-04T13:03:53.694Z,96704.22
2018-05-04T13:06:24.428Z,96705.61
2018-05-04T13:08:54.475Z,96707.00
2018-05-04T13:11:23.783Z,96703.46
2018-05-04T13:13:53.440Z,96712.75
2018-05-04T13:16:24.435Z,96712.64
2018-05-04T13:18:53.820Z,96706.91
2018-05-04T13:21:23.832Z,96706.16
2018-05-04T13:23:53.447Z,96705.92
2018-05-04T13:26:22.956Z,96698.61
2018-05-04T13:28:52.866Z,96700.17
2018-05-04T13:31:23.686Z,96700.80
2018-05-04T13:33:52.825Z,96698.22
2018-05-04T13:36:22.434Z,96704.38
2018-05-04T13:38:53.338Z,96709.19
2018-05-04T13:41:23.536Z,96698.82
2018-05-04T13:43:53.871Z,96704.09
2018-05-04T13:46:23.541Z,96706.88
2018-05-04T13:48:53.210Z,96709.25
2018-05-04T13:51:22.862Z,96709.41
2018-05-04T13:53:52.449Z,96699.53
2018-05-04T13:56:21.762Z,96698.53
2018-05-04T13:58:51.366Z,96701.88
2018-05-04T14:01:20.849Z,96695.28
2018-05-04T14:03:50.855Z,96697.67
2018-05-04T14:06:21.464Z,96707.75
2018-05-04T14:50:22.589Z,96754.24
2018-05-04T14:52:51.833Z,96754.84
2018-05-04T14:55:22.722Z,96757.19
2018-05-04T14:57:51.860Z,96762.18
2018-05-04T15:00:21.441Z,96763.57
2018-05-04T15:02:51.409Z,96760.79
2018-05-04T15:05:21.771Z,96769.92
2018-05-04T15:07:51.520Z,96774.49
2018-05-04T15:10:21.752Z,96784.06
2018-05-04T15:12:50.995Z,96791.53
2018-05-04T15:15:19.943Z,96798.83
2018-05-04T15:17:48.668Z,96797.05
2018-05-04T15:20:19.813Z,96798.63
2018-05-04T15:22:49.679Z,96800.17
2018-05-04T15:25:18.797Z,96802.16
2018-05-04T15:27:47.845Z,96805.73
2018-05-04T15:30:19.047Z,96814.90
2018-05-04T15:32:49.381Z,96822.05
2018-05-04T15:35:20.498Z,96819.27
2018-05-04T15:37:49.754Z,96816.14
2018-05-04T15:40:21.815Z,96826.31
2018-05-04T15:42:51.417Z,96823.37
2018-05-04T15:45:20.780Z,96830.08
2018-05-04T15:47:50.522Z,96827.77
2018-05-04T15:50:27.507Z,96831.63
2018-05-04T15:52:57.423Z,96840.02
2018-05-04T15:55:27.419Z,96841.21
2018-05-04T15:57:57.761Z,96837.04
2018-05-04T16:00:27.631Z,96843.19
2018-05-04T16:02:56.991Z,96847.95
2018-05-04T16:05:28.434Z,96846.81
2018-05-04T16:07:58.357Z,96834.78
2018-05-04T16:10:28.891Z,96836.61
2018-05-04T16:12:57.723Z,96843.77
2018-05-04T16:15:26.825Z,96848.38
2018-05-04T16:17:56.430Z,96851.63
2018-05-04T16:20:26.731Z,96859.82
2018-05-04T16:22:56.442Z,96868.80
2018-05-04T16:25:25.801Z,96873.22
2018-05-04T16:27:56.709Z,96881.95
2018-05-04T16:30:26.392Z,96889.31
2018-05-04T16:32:55.848Z,96886.04
2018-05-04T16:35:25.402Z,96890.31
2018-05-04T16:37:54.784Z,96894.75
2018-05-04T16:40:24.421Z,96910.28
2018-05-04T16:42:53.798Z,96917.79
2018-05-04T16:45:23.682Z,96919.97
2018-05-04T16:47:58.599Z,96920.72
2018-05-04T16:50:28.463Z,96937.00
2018-05-04T16:52:58.394Z,96947.08
2018-05-04T16:55:27.988Z,96945.50
2018-05-04T16:57:57.491Z,96946.53
2018-05-04T17:00:27.914Z,96949.76
2018-05-04T17:02:56.681Z,96943.69
2018-05-04T17:05:26.435Z,96937.94
2018-05-04T17:07:56.437Z,96939.33
2018-05-04T17:10:26.436Z,96942.10
2018-05-04T17:12:56.449Z,96935.79
2018-05-04T17:15:29.530Z,96931.96
2018-05-04T17:18:05.832Z,96934.08
2018-05-04T17:20:35.380Z,96927.41
2018-05-04T17:23:05.002Z,96924.28
2018-05-04T17:25:34.603Z,96923.77
2018-05-04T17:28:04.397Z,96921.20
2018-05-04T17:30:34.794Z,96936.14
2018-05-04T17:33:03.883Z,96935.78
2018-05-04T17:35:32.733Z,96938.33
2018-05-04T17:38:03.863Z,96938.77
2018-05-04T17:40:33.646Z,96951.76
2018-05-04T17:43:02.883Z,96950.41
2018-05-04T17:48:13.478Z,96960.23
2018-05-04T17:50:43.274Z,96961.47
2018-05-04T17:53:12.967Z,96967.52
2018-05-04T17:55:41.695Z,96967.97
2018-05-04T17:58:11.429Z,96967.66
2018-05-04T18:00:40.812Z,96960.98
2018-05-04T18:03:10.334Z,96970.52
2018-05-04T18:05:40.650Z,96969.77
2018-05-04T18:08:09.991Z,96972.36
2018-05-04T18:10:39.510Z,96979.51
2018-05-04T18:13:09.439Z,96982.69
2018-05-04T18:15:39.701Z,96990.80
2018-05-04T18:18:09.551Z,96994.72
2018-05-04T18:20:40.222Z,96997.67
2018-05-04T18:23:10.435Z,97000.45
2018-05-04T18:25:40.437Z,96995.67
2018-05-04T18:28:09.901Z,97000.80
2018-05-04T18:30:39.366Z,97004.53
2018-05-04T18:33:08.852Z,97017.25
2018-05-04T18:35:46.814Z,97016.25
2018-05-04T18:38:16.477Z,97021.42
2018-05-04T18:40:50.812Z,97016.94
2018-05-04T18:43:20.652Z,97019.72
2018-05-04T18:45:51.481Z,97023.84
2018-05-04T18:48:22.724Z,97028.27
2018-05-04T18:50:52.679Z,97030.49
2018-05-04T18:53:22.492Z,97026.77
2018-05-04T18:55:56.447Z,97030.79
2018-05-04T18:58:25.870Z,97035.81
2018-05-04T19:00:55.506Z,97045.03
2018-05-04T19:03:25.328Z,97049.81
2018-05-04T19:05:59.074Z,97056.05
2018-05-04T19:08:28.872Z,97060.45
2018-05-04T19:10:58.921Z,97070.00
2018-05-04T19:13:43.775Z,97069.05
2018-05-04T19:16:16.499Z,97073.23
2018-05-04T19:18:46.875Z,97083.96
2018-05-04T19:21:16.979Z,97079.74
2018-05-04T19:23:46.606Z,97095.73
2018-05-04T19:26:17.734Z,97098.11
2018-05-04T19:28:47.423Z,97099.67
2018-05-04T19:31:19.319Z,97110.45
2018-05-04T19:33:50.452Z,97112.03
2018-05-04T19:36:21.504Z,97121.18
2018-05-04T19:38:50.859Z,97118.55
2018-05-04T19:41:29.009Z,97120.94
2018-05-04T19:43:59.547Z,97121.53
2018-05-04T19:48:57.797Z,97125.70
2018-05-04T19:51:28.563Z,97126.11
2018-05-04T19:54:03.335Z,97130.68
2018-05-04T19:56:38.442Z,97126.30
2018-05-04T19:59:10.530Z,97132.27
2018-05-04T20:01:43.359Z,97133.25
2018-05-04T20:04:25.504Z,97134.77
2018-05-04T20:06:56.297Z,97143.94
2018-05-04T20:09:39.498Z,97144.66
2018-05-04T20:12:12.489Z,97139.92
2018-05-04T20:14:41.858Z,97135.16
2018-05-04T20:17:11.443Z,97147.12
2018-05-04T20:19:53.866Z,97142.76
2018-05-04T20:22:26.477Z,97142.76
2018-05-04T20:24:57.860Z,97150.23
2018-05-04T20:27:28.463Z,97153.60
2018-05-04T20:29:58.477Z,97154.95
2018-05-04T20:32:34.961Z,97162.25
2018-05-04T20:35:04.618Z,97164.94
2018-05-04T20:37:35.618Z,97167.18
2018-05-04T20:40:08.981Z,97167.63
2018-05-04T20:42:39.559Z,97167.81
2018-05-04T20:49:39.702Z,97164.00
2018-05-04T20:52:09.461Z,97164.00
2018-05-04T20:54:39.940Z,97171.30
2018-05-04T20:57:10.609Z,97173.05
2018-05-04T20:59:40.995Z,97180.41
2018-05-04T21:02:16.452Z,97176.82
2018-05-04T21:04:46.821Z,97176.19
2018-05-04T21:07:16.528Z,97177.36
2018-05-04T21:09:47.445Z,97181.34
2018-05-04T21:12:18.016Z,97187.10
2018-05-04T21:14:47.768Z,97182.69
2018-05-04T21:17:17.701Z,97182.34
2018-05-04T21:19:47.725Z,97188.44
2018-05-04T21:22:17.012Z,97194.76
2018-05-04T21:24:49.490Z,97190.89
2018-05-04T21:27:18.884Z,97189.44
2018-05-04T21:29:48.438Z,97191.38
2018-05-04T21:32:17.787Z,97195.50
2018-05-04T21:34:49.910Z,97199.46
2018-05-04T21:37:19.104Z,97198.58
2018-05-04T21:39:54.786Z,97192.80
2018-05-04T21:42:24.491Z,97204.44
2018-05-04T21:44:53.954Z,97214.13
2018-05-04T21:47:23.687Z,97215.89
2018-05-04T21:49:53.370Z,97215.66
2018-05-04T21:52:24.652Z,97216.80
2018-05-04T21:54:54.495Z,97216.78
2018-05-04T21:57:24.503Z,97216.14
2018-05-04T21:59:54.660Z,97215.49
2018-05-04T22:02:23.833Z,97220.42
2018-05-04T22:04:53.407Z,97216.83
2018-05-04T22:07:22.872Z,97221.20
2018-05-04T22:09:53.567Z,97213.20
2018-05-04T22:12:23.933Z,97228.66
2018-05-04T22:14:52.889Z,97227.05
2018-05-04T22:17:22.481Z,97228.20
2018-05-04T22:22:33.825Z,97231.52
2018-05-04T22:25:03.485Z,97238.66
2018-05-04T22:27:32.844Z,97238.60
2018-05-04T22:30:02.869Z,97242.94
2018-05-04T22:32:32.787Z,97244.33
2018-05-04T22:35:02.722Z,97242.34
2018-05-04T22:37:32.451Z,97245.10
2018-05-04T22:40:02.560Z,97236.33
2018-05-04T22:42:32.494Z,97226.78
2018-05-04T22:48:03.377Z,97234.33
2018-05-04T22:50:33.534Z,97234.08
2018-05-04T22:53:03.482Z,97232.05
2018-05-04T22:55:33.051Z,97228.87
2018-05-04T22:58:02.940Z,97234.62
2018-05-04T23:00:32.459Z,97230.05
2018-05-04T23:03:04.053Z,97233.39
2018-05-04T23:05:33.952Z,97230.05
2018-05-04T23:08:04.223Z,97230.39
2018-05-04T23:10:34.501Z,97230.98
2018-05-04T23:13:17.751Z,97221.41
2018-05-04T23:15:46.957Z,97220.61
2018-05-04T23:20:59.032Z,97220.61
2018-05-04T23:23:27.901Z,97226.76
2018-05-04T23:25:56.857Z,97226.86
2018-05-04T23:28:27.577Z,97229.11
2018-05-04T23:30:56.861Z,97228.50
2018-05-04T23:33:28.196Z,97226.86
2018-05-04T23:35:58.505Z,97231.63
2018-05-04T23:38:27.956Z,97233.59
2018-05-04T23:40:56.734Z,97230.98
2018-05-04T23:43:26.650Z,97231.22
2018-05-04T23:49:18.478Z,97225.82
2018-05-04T23:51:47.805Z,97229.38
2018-05-04T23:54:17.462Z,97228.94
2018-05-04T23:56:46.865Z,97234.50
2018-05-04T23:59:17.458Z,97228.94
